sensor_id;sensor_type;location;lat;lon;timestamp;P1;durP1;ratioP1;P2;durP2;ratioP2
17997;SDS011;9124;48.144;17.098;2022-08-19T00:02:56;15.75;;;3.25;;
17997;SDS011;9124;48.144;17.098;2022-08-19T00:06:34;10.02;;;2.63;;
17997;SDS011;9124;48.144;17.098;2022-08-19T00:10:14;13.25;;;3.63;;
17997;SDS011;9124;48.144;17.098;2022-08-19T00:13:52;9.52;;;3.75;;
17997;SDS011;9124;48.144;17.098;2022-08-19T00:17:30;9.40;;;3.45;;
17997;SDS011;9124;48.144;17.098;2022-08-19T00:21:07;7.75;;;3.47;;
17997;SDS011;9124;48.144;17.098;2022-08-19T00:24:45;7.05;;;3.88;;
17997;SDS011;9124;48.144;17.098;2022-08-19T00:28:23;9.93;;;4.25;;
17997;SDS011;9124;48.144;17.098;2022-08-19T00:31:59;10.65;;;4.07;;
17997;SDS011;9124;48.144;17.098;2022-08-19T00:35:36;12.73;;;4.10;;
17997;SDS011;9124;48.144;17.098;2022-08-19T00:39:15;8.82;;;4.10;;
17997;SDS011;9124;48.144;17.098;2022-08-19T00:42:53;9.38;;;4.15;;
17997;SDS011;9124;48.144;17.098;2022-08-19T00:46:30;10.95;;;4.15;;
17997;SDS011;9124;48.144;17.098;2022-08-19T00:50:10;16.52;;;4.40;;
17997;SDS011;9124;48.144;17.098;2022-08-19T00:53:49;6.45;;;3.80;;
17997;SDS011;9124;48.144;17.098;2022-08-19T00:57:36;11.52;;;4.93;;
17997;SDS011;9124;48.144;17.098;2022-08-19T01:01:14;6.80;;;4.15;;
17997;SDS011;9124;48.144;17.098;2022-08-19T01:04:52;11.77;;;4.80;;
17997;SDS011;9124;48.144;17.098;2022-08-19T01:08:28;8.50;;;4.40;;
17997;SDS011;9124;48.144;17.098;2022-08-19T01:12:06;7.72;;;4.22;;
17997;SDS011;9124;48.144;17.098;2022-08-19T01:15:45;7.25;;;4.32;;
17997;SDS011;9124;48.144;17.098;2022-08-19T01:19:30;6.53;;;3.78;;
17997;SDS011;9124;48.144;17.098;2022-08-19T01:23:12;8.55;;;4.60;;
17997;SDS011;9124;48.144;17.098;2022-08-19T01:36:09;5.13;;;3.35;;
17997;SDS011;9124;48.144;17.098;2022-08-19T01:39:50;10.90;;;4.03;;
17997;SDS011;9124;48.144;17.098;2022-08-19T01:43:27;9.98;;;3.63;;
17997;SDS011;9124;48.144;17.098;2022-08-19T01:47:04;7.50;;;3.30;;
17997;SDS011;9124;48.144;17.098;2022-08-19T01:50:42;17.15;;;3.22;;
17997;SDS011;9124;48.144;17.098;2022-08-19T01:54:19;13.43;;;3.95;;
17997;SDS011;9124;48.144;17.098;2022-08-19T01:57:59;11.93;;;3.30;;
17997;SDS011;9124;48.144;17.098;2022-08-19T02:01:38;6.60;;;3.47;;
17997;SDS011;9124;48.144;17.098;2022-08-19T02:05:14;8.30;;;3.40;;
17997;SDS011;9124;48.144;17.098;2022-08-19T02:08:54;9.75;;;3.67;;
17997;SDS011;9124;48.144;17.098;2022-08-19T02:12:31;14.63;;;3.38;;
17997;SDS011;9124;48.144;17.098;2022-08-19T02:16:08;10.18;;;3.25;;
17997;SDS011;9124;48.144;17.098;2022-08-19T02:19:46;11.43;;;3.70;;
17997;SDS011;9124;48.144;17.098;2022-08-19T02:23:25;5.93;;;2.92;;
17997;SDS011;9124;48.144;17.098;2022-08-19T02:27:03;8.18;;;3.15;;
17997;SDS011;9124;48.144;17.098;2022-08-19T02:30:42;8.13;;;3.33;;
17997;SDS011;9124;48.144;17.098;2022-08-19T02:34:19;11.52;;;3.00;;
17997;SDS011;9124;48.144;17.098;2022-08-19T02:37:56;8.02;;;3.50;;
17997;SDS011;9124;48.144;17.098;2022-08-19T02:41:51;13.35;;;3.63;;
17997;SDS011;9124;48.144;17.098;2022-08-19T02:45:35;15.32;;;2.97;;
17997;SDS011;9124;48.144;17.098;2022-08-19T02:49:13;7.07;;;4.07;;
17997;SDS011;9124;48.144;17.098;2022-08-19T02:52:52;10.10;;;3.28;;
17997;SDS011;9124;48.144;17.098;2022-08-19T02:56:29;9.38;;;3.30;;
17997;SDS011;9124;48.144;17.098;2022-08-19T03:00:07;6.40;;;3.45;;
17997;SDS011;9124;48.144;17.098;2022-08-19T03:03:47;10.80;;;3.20;;
17997;SDS011;9124;48.144;17.098;2022-08-19T03:07:24;11.27;;;3.10;;
17997;SDS011;9124;48.144;17.098;2022-08-19T03:11:01;11.00;;;3.63;;
17997;SDS011;9124;48.144;17.098;2022-08-19T03:14:38;11.68;;;3.22;;
17997;SDS011;9124;48.144;17.098;2022-08-19T03:18:15;10.45;;;3.20;;
17997;SDS011;9124;48.144;17.098;2022-08-19T03:31:05;5.57;;;2.90;;
17997;SDS011;9124;48.144;17.098;2022-08-19T03:34:45;7.53;;;2.95;;
17997;SDS011;9124;48.144;17.098;2022-08-19T03:38:22;14.45;;;3.10;;
17997;SDS011;9124;48.144;17.098;2022-08-19T03:41:59;20.13;;;3.95;;
17997;SDS011;9124;48.144;17.098;2022-08-19T03:45:38;10.07;;;3.22;;
17997;SDS011;9124;48.144;17.098;2022-08-19T03:49:15;11.77;;;3.58;;
17997;SDS011;9124;48.144;17.098;2022-08-19T03:52:53;17.55;;;3.67;;
17997;SDS011;9124;48.144;17.098;2022-08-19T03:56:30;19.98;;;3.60;;
17997;SDS011;9124;48.144;17.098;2022-08-19T04:00:09;8.50;;;3.08;;
17997;SDS011;9124;48.144;17.098;2022-08-19T04:03:47;10.48;;;3.30;;
17997;SDS011;9124;48.144;17.098;2022-08-19T04:07:25;8.95;;;3.85;;
17997;SDS011;9124;48.144;17.098;2022-08-19T04:11:05;11.65;;;4.68;;
17997;SDS011;9124;48.144;17.098;2022-08-19T04:14:43;8.40;;;4.20;;
17997;SDS011;9124;48.144;17.098;2022-08-19T04:18:20;13.85;;;3.83;;
17997;SDS011;9124;48.144;17.098;2022-08-19T04:21:57;12.18;;;3.92;;
17997;SDS011;9124;48.144;17.098;2022-08-19T04:25:39;10.65;;;4.45;;
17997;SDS011;9124;48.144;17.098;2022-08-19T04:29:21;11.45;;;4.68;;
17997;SDS011;9124;48.144;17.098;2022-08-19T04:33:00;9.38;;;4.72;;
17997;SDS011;9124;48.144;17.098;2022-08-19T04:36:38;16.33;;;5.28;;
17997;SDS011;9124;48.144;17.098;2022-08-19T04:40:16;10.57;;;5.57;;
17997;SDS011;9124;48.144;17.098;2022-08-19T04:44:12;20.77;;;6.43;;
17997;SDS011;9124;48.144;17.098;2022-08-19T04:47:54;11.48;;;5.95;;
17997;SDS011;9124;48.144;17.098;2022-08-19T04:51:34;26.83;;;6.55;;
17997;SDS011;9124;48.144;17.098;2022-08-19T04:55:11;14.40;;;6.28;;
17997;SDS011;9124;48.144;17.098;2022-08-19T04:58:49;16.80;;;6.95;;
17997;SDS011;9124;48.144;17.098;2022-08-19T05:02:27;6.93;;;6.38;;
17997;SDS011;9124;48.144;17.098;2022-08-19T05:06:06;11.75;;;7.45;;
17997;SDS011;9124;48.144;17.098;2022-08-19T05:09:45;11.85;;;7.05;;
17997;SDS011;9124;48.144;17.098;2022-08-19T05:13:23;17.15;;;7.22;;
17997;SDS011;9124;48.144;17.098;2022-08-19T05:17:00;18.23;;;7.97;;
17997;SDS011;9124;48.144;17.098;2022-08-19T05:20:38;12.40;;;8.10;;
17997;SDS011;9124;48.144;17.098;2022-08-19T05:24:33;15.45;;;8.63;;
17997;SDS011;9124;48.144;17.098;2022-08-19T05:28:10;12.80;;;7.85;;
17997;SDS011;9124;48.144;17.098;2022-08-19T05:31:47;14.93;;;8.30;;
17997;SDS011;9124;48.144;17.098;2022-08-19T05:35:25;13.63;;;8.60;;
17997;SDS011;9124;48.144;17.098;2022-08-19T05:39:02;17.98;;;8.52;;
17997;SDS011;9124;48.144;17.098;2022-08-19T05:42:40;15.48;;;8.40;;
17997;SDS011;9124;48.144;17.098;2022-08-19T05:46:17;11.75;;;8.43;;
17997;SDS011;9124;48.144;17.098;2022-08-19T05:49:56;15.32;;;9.13;;
17997;SDS011;9124;48.144;17.098;2022-08-19T05:53:33;12.50;;;8.55;;
17997;SDS011;9124;48.144;17.098;2022-08-19T05:57:10;20.20;;;9.48;;
17997;SDS011;9124;48.144;17.098;2022-08-19T06:00:47;11.23;;;9.32;;
17997;SDS011;9124;48.144;17.098;2022-08-19T06:04:24;10.48;;;8.23;;
17997;SDS011;9124;48.144;17.098;2022-08-19T06:08:01;16.10;;;9.40;;
17997;SDS011;9124;48.144;17.098;2022-08-19T06:26:07;10.75;;;9.38;;
17997;SDS011;9124;48.144;17.098;2022-08-19T06:29:48;15.65;;;9.52;;
17997;SDS011;9124;48.144;17.098;2022-08-19T06:33:25;12.43;;;9.60;;
17997;SDS011;9124;48.144;17.098;2022-08-19T06:37:02;14.05;;;9.30;;
17997;SDS011;9124;48.144;17.098;2022-08-19T06:40:39;10.10;;;8.98;;
17997;SDS011;9124;48.144;17.098;2022-08-19T06:44:17;14.15;;;9.38;;
17997;SDS011;9124;48.144;17.098;2022-08-19T06:47:55;12.93;;;7.10;;
17997;SDS011;9124;48.144;17.098;2022-08-19T06:51:34;19.65;;;5.22;;
17997;SDS011;9124;48.144;17.098;2022-08-19T06:55:10;17.05;;;4.68;;
17997;SDS011;9124;48.144;17.098;2022-08-19T06:58:47;16.48;;;5.35;;
17997;SDS011;9124;48.144;17.098;2022-08-19T07:07:50;9.90;;;4.75;;
17997;SDS011;9124;48.144;17.098;2022-08-19T07:11:27;7.35;;;4.38;;
17997;SDS011;9124;48.144;17.098;2022-08-19T07:15:04;15.25;;;4.82;;
17997;SDS011;9124;48.144;17.098;2022-08-19T07:18:45;12.35;;;4.53;;
17997;SDS011;9124;48.144;17.098;2022-08-19T07:22:25;17.08;;;5.05;;
17997;SDS011;9124;48.144;17.098;2022-08-19T07:29:54;8.45;;;4.80;;
17997;SDS011;9124;48.144;17.098;2022-08-19T07:33:31;11.02;;;5.30;;
17997;SDS011;9124;48.144;17.098;2022-08-19T07:37:09;9.35;;;5.05;;
17997;SDS011;9124;48.144;17.098;2022-08-19T07:40:46;8.63;;;4.97;;
17997;SDS011;9124;48.144;17.098;2022-08-19T07:44:23;10.35;;;5.07;;
17997;SDS011;9124;48.144;17.098;2022-08-19T07:48:00;8.18;;;5.30;;
17997;SDS011;9124;48.144;17.098;2022-08-19T07:51:37;11.20;;;4.93;;
17997;SDS011;9124;48.144;17.098;2022-08-19T07:55:14;7.70;;;5.03;;
17997;SDS011;9124;48.144;17.098;2022-08-19T07:58:52;12.32;;;5.50;;
17997;SDS011;9124;48.144;17.098;2022-08-19T08:02:29;7.80;;;4.90;;
17997;SDS011;9124;48.144;17.098;2022-08-19T08:06:06;7.95;;;4.85;;
17997;SDS011;9124;48.144;17.098;2022-08-19T08:10:03;9.02;;;4.78;;
17997;SDS011;9124;48.144;17.098;2022-08-19T08:23:49;10.00;;;6.88;;
17997;SDS011;9124;48.144;17.098;2022-08-19T08:27:31;10.35;;;6.40;;
17997;SDS011;9124;48.144;17.098;2022-08-19T08:31:15;13.40;;;6.38;;
17997;SDS011;9124;48.144;17.098;2022-08-19T08:34:52;8.93;;;6.20;;
17997;SDS011;9124;48.144;17.098;2022-08-19T08:38:30;12.07;;;7.03;;
17997;SDS011;9124;48.144;17.098;2022-08-19T08:42:27;17.10;;;7.28;;
17997;SDS011;9124;48.144;17.098;2022-08-19T08:46:15;9.30;;;6.72;;
17997;SDS011;9124;48.144;17.098;2022-08-19T08:49:55;9.98;;;6.97;;
17997;SDS011;9124;48.144;17.098;2022-08-19T08:53:36;11.20;;;6.95;;
17997;SDS011;9124;48.144;17.098;2022-08-19T08:57:18;12.43;;;7.43;;
17997;SDS011;9124;48.144;17.098;2022-08-19T09:01:16;8.52;;;7.10;;
17997;SDS011;9124;48.144;17.098;2022-08-19T09:04:54;8.32;;;7.50;;
17997;SDS011;9124;48.144;17.098;2022-08-19T09:08:39;15.82;;;7.30;;
17997;SDS011;9124;48.144;17.098;2022-08-19T09:16:39;10.93;;;7.22;;
17997;SDS011;9124;48.144;17.098;2022-08-19T09:20:20;11.63;;;7.72;;
17997;SDS011;9124;48.144;17.098;2022-08-19T09:23:59;10.00;;;7.72;;
17997;SDS011;9124;48.144;17.098;2022-08-19T09:27:38;16.95;;;7.97;;
17997;SDS011;9124;48.144;17.098;2022-08-19T09:31:17;11.48;;;8.20;;
17997;SDS011;9124;48.144;17.098;2022-08-19T09:34:57;26.80;;;9.07;;
17997;SDS011;9124;48.144;17.098;2022-08-19T09:38:36;14.80;;;6.93;;
17997;SDS011;9124;48.144;17.098;2022-08-19T09:42:16;14.30;;;6.80;;
17997;SDS011;9124;48.144;17.098;2022-08-19T09:45:53;11.57;;;6.88;;
17997;SDS011;9124;48.144;17.098;2022-08-19T09:49:30;8.38;;;7.15;;
17997;SDS011;9124;48.144;17.098;2022-08-19T09:53:06;12.45;;;6.90;;
17997;SDS011;9124;48.144;17.098;2022-08-19T09:56:43;7.32;;;6.60;;
17997;SDS011;9124;48.144;17.098;2022-08-19T10:05:05;16.45;;;6.88;;
17997;SDS011;9124;48.144;17.098;2022-08-19T10:09:00;10.88;;;6.53;;
17997;SDS011;9124;48.144;17.098;2022-08-19T10:17:22;10.73;;;6.90;;
17997;SDS011;9124;48.144;17.098;2022-08-19T10:21:18;17.17;;;7.53;;
17997;SDS011;9124;48.144;17.098;2022-08-19T10:25:00;17.90;;;7.30;;
17997;SDS011;9124;48.144;17.098;2022-08-19T10:28:37;18.42;;;8.00;;
17997;SDS011;9124;48.144;17.098;2022-08-19T10:32:14;14.63;;;7.10;;
17997;SDS011;9124;48.144;17.098;2022-08-19T10:36:02;15.82;;;7.45;;
17997;SDS011;9124;48.144;17.098;2022-08-19T10:39:40;16.45;;;7.13;;
17997;SDS011;9124;48.144;17.098;2022-08-19T10:43:17;13.10;;;6.90;;
17997;SDS011;9124;48.144;17.098;2022-08-19T10:46:54;16.25;;;7.38;;
17997;SDS011;9124;48.144;17.098;2022-08-19T10:50:31;15.80;;;6.57;;
17997;SDS011;9124;48.144;17.098;2022-08-19T10:54:26;14.07;;;6.53;;
17997;SDS011;9124;48.144;17.098;2022-08-19T10:58:24;14.00;;;7.13;;
17997;SDS011;9124;48.144;17.098;2022-08-19T11:02:02;14.77;;;7.25;;
17997;SDS011;9124;48.144;17.098;2022-08-19T11:05:41;12.52;;;7.40;;
17997;SDS011;9124;48.144;17.098;2022-08-19T11:09:19;22.00;;;8.30;;
17997;SDS011;9124;48.144;17.098;2022-08-19T11:12:57;9.25;;;7.35;;
17997;SDS011;9124;48.144;17.098;2022-08-19T11:16:36;16.45;;;7.90;;
17997;SDS011;9124;48.144;17.098;2022-08-19T11:20:16;13.57;;;7.88;;
17997;SDS011;9124;48.144;17.098;2022-08-19T11:23:55;21.42;;;7.60;;
17997;SDS011;9124;48.144;17.098;2022-08-19T11:27:33;24.08;;;7.47;;
17997;SDS011;9124;48.144;17.098;2022-08-19T11:31:14;15.63;;;6.60;;
17997;SDS011;9124;48.144;17.098;2022-08-19T11:34:53;9.43;;;6.40;;
17997;SDS011;9124;48.144;17.098;2022-08-19T11:38:30;11.13;;;6.15;;
17997;SDS011;9124;48.144;17.098;2022-08-19T11:42:07;14.43;;;5.80;;
17997;SDS011;9124;48.144;17.098;2022-08-19T11:46:04;14.90;;;5.70;;
17997;SDS011;9124;48.144;17.098;2022-08-19T11:49:46;20.48;;;6.13;;
17997;SDS011;9124;48.144;17.098;2022-08-19T11:53:23;12.88;;;5.95;;
17997;SDS011;9124;48.144;17.098;2022-08-19T12:02:22;7.20;;;5.28;;
17997;SDS011;9124;48.144;17.098;2022-08-19T12:06:03;16.75;;;5.28;;
17997;SDS011;9124;48.144;17.098;2022-08-19T12:25:00;10.02;;;5.80;;
17997;SDS011;9124;48.144;17.098;2022-08-19T12:28:38;12.13;;;5.25;;
17997;SDS011;9124;48.144;17.098;2022-08-19T12:32:15;7.82;;;5.38;;
17997;SDS011;9124;48.144;17.098;2022-08-19T12:35:53;12.32;;;4.63;;
17997;SDS011;9124;48.144;17.098;2022-08-19T12:39:33;9.98;;;4.85;;
17997;SDS011;9124;48.144;17.098;2022-08-19T12:43:11;11.48;;;5.05;;
17997;SDS011;9124;48.144;17.098;2022-08-19T12:46:49;11.90;;;4.82;;
17997;SDS011;9124;48.144;17.098;2022-08-19T12:50:26;14.60;;;4.78;;
17997;SDS011;9124;48.144;17.098;2022-08-19T12:54:03;10.45;;;4.60;;
17997;SDS011;9124;48.144;17.098;2022-08-19T12:57:41;10.32;;;4.40;;
17997;SDS011;9124;48.144;17.098;2022-08-19T13:01:17;12.43;;;4.90;;
17997;SDS011;9124;48.144;17.098;2022-08-19T13:04:54;10.27;;;4.63;;
17997;SDS011;9124;48.144;17.098;2022-08-19T13:08:32;14.30;;;5.00;;
17997;SDS011;9124;48.144;17.098;2022-08-19T13:12:09;6.05;;;4.57;;
17997;SDS011;9124;48.144;17.098;2022-08-19T13:15:48;13.85;;;5.00;;
17997;SDS011;9124;48.144;17.098;2022-08-19T13:19:25;19.48;;;4.95;;
17997;SDS011;9124;48.144;17.098;2022-08-19T13:23:02;13.50;;;4.38;;
17997;SDS011;9124;48.144;17.098;2022-08-19T13:26:40;10.73;;;4.32;;
17997;SDS011;9124;48.144;17.098;2022-08-19T13:30:17;18.30;;;4.97;;
17997;SDS011;9124;48.144;17.098;2022-08-19T13:34:14;34.97;;;6.22;;
17997;SDS011;9124;48.144;17.098;2022-08-19T13:37:53;11.35;;;3.83;;
17997;SDS011;9124;48.144;17.098;2022-08-19T13:41:29;9.57;;;3.67;;
17997;SDS011;9124;48.144;17.098;2022-08-19T13:45:07;18.52;;;4.57;;
17997;SDS011;9124;48.144;17.098;2022-08-19T13:48:44;13.23;;;3.85;;
17997;SDS011;9124;48.144;17.098;2022-08-19T13:52:22;14.18;;;3.75;;
17997;SDS011;9124;48.144;17.098;2022-08-19T13:55:58;20.25;;;4.30;;
17997;SDS011;9124;48.144;17.098;2022-08-19T13:59:35;13.88;;;4.55;;
17997;SDS011;9124;48.144;17.098;2022-08-19T14:03:12;24.38;;;6.10;;
17997;SDS011;9124;48.144;17.098;2022-08-19T14:06:49;21.88;;;5.20;;
17997;SDS011;9124;48.144;17.098;2022-08-19T14:10:27;15.63;;;5.05;;
17997;SDS011;9124;48.144;17.098;2022-08-19T14:18:08;16.73;;;5.22;;
17997;SDS011;9124;48.144;17.098;2022-08-19T14:21:45;21.05;;;4.93;;
17997;SDS011;9124;48.144;17.098;2022-08-19T14:30:50;17.23;;;5.50;;
17997;SDS011;9124;48.144;17.098;2022-08-19T14:34:28;18.23;;;5.15;;
17997;SDS011;9124;48.144;17.098;2022-08-19T14:38:14;21.52;;;5.43;;
17997;SDS011;9124;48.144;17.098;2022-08-19T14:41:54;33.55;;;5.97;;
17997;SDS011;9124;48.144;17.098;2022-08-19T14:45:31;25.55;;;5.78;;
17997;SDS011;9124;48.144;17.098;2022-08-19T14:49:11;16.00;;;5.10;;
17997;SDS011;9124;48.144;17.098;2022-08-19T14:52:48;21.73;;;5.55;;
17997;SDS011;9124;48.144;17.098;2022-08-19T14:56:27;15.70;;;4.82;;
17997;SDS011;9124;48.144;17.098;2022-08-19T15:00:05;15.70;;;4.60;;
17997;SDS011;9124;48.144;17.098;2022-08-19T15:03:43;15.55;;;4.30;;
17997;SDS011;9124;48.144;17.098;2022-08-19T15:07:20;23.48;;;5.22;;
17997;SDS011;9124;48.144;17.098;2022-08-19T15:10:57;22.30;;;5.80;;
17997;SDS011;9124;48.144;17.098;2022-08-19T15:14:35;15.73;;;5.95;;
17997;SDS011;9124;48.144;17.098;2022-08-19T15:18:13;21.77;;;5.97;;
17997;SDS011;9124;48.144;17.098;2022-08-19T15:21:50;24.60;;;6.15;;
17997;SDS011;9124;48.144;17.098;2022-08-19T15:25:27;25.50;;;5.82;;
17997;SDS011;9124;48.144;17.098;2022-08-19T15:29:04;22.27;;;6.43;;
17997;SDS011;9124;48.144;17.098;2022-08-19T15:32:41;15.27;;;6.22;;
17997;SDS011;9124;48.144;17.098;2022-08-19T15:36:17;15.75;;;6.03;;
17997;SDS011;9124;48.144;17.098;2022-08-19T15:39:54;23.23;;;6.53;;
17997;SDS011;9124;48.144;17.098;2022-08-19T15:43:31;16.85;;;5.85;;
17997;SDS011;9124;48.144;17.098;2022-08-19T15:47:08;14.45;;;4.97;;
17997;SDS011;9124;48.144;17.098;2022-08-19T15:50:44;17.23;;;5.50;;
17997;SDS011;9124;48.144;17.098;2022-08-19T15:54:21;10.30;;;5.75;;
17997;SDS011;9124;48.144;17.098;2022-08-19T15:58:02;22.70;;;7.22;;
17997;SDS011;9124;48.144;17.098;2022-08-19T16:01:59;22.23;;;7.93;;
17997;SDS011;9124;48.144;17.098;2022-08-19T16:05:54;18.75;;;6.80;;
17997;SDS011;9124;48.144;17.098;2022-08-19T16:09:49;15.38;;;6.80;;
17997;SDS011;9124;48.144;17.098;2022-08-19T16:13:26;18.33;;;6.20;;
17997;SDS011;9124;48.144;17.098;2022-08-19T16:17:03;22.75;;;6.47;;
17997;SDS011;9124;48.144;17.098;2022-08-19T16:20:40;13.85;;;5.65;;
17997;SDS011;9124;48.144;17.098;2022-08-19T16:24:18;17.50;;;6.15;;
17997;SDS011;9124;48.144;17.098;2022-08-19T16:37:04;21.75;;;5.43;;
17997;SDS011;9124;48.144;17.098;2022-08-19T16:40:41;20.70;;;5.20;;
17997;SDS011;9124;48.144;17.098;2022-08-19T16:44:18;15.43;;;5.45;;
17997;SDS011;9124;48.144;17.098;2022-08-19T16:47:56;12.60;;;5.10;;
17997;SDS011;9124;48.144;17.098;2022-08-19T16:51:33;17.05;;;4.93;;
17997;SDS011;9124;48.144;17.098;2022-08-19T16:55:10;17.25;;;5.53;;
17997;SDS011;9124;48.144;17.098;2022-08-19T16:58:47;19.88;;;5.70;;
17997;SDS011;9124;48.144;17.098;2022-08-19T17:02:25;9.88;;;4.57;;
17997;SDS011;9124;48.144;17.098;2022-08-19T17:06:03;18.27;;;5.57;;
17997;SDS011;9124;48.144;17.098;2022-08-19T17:09:51;12.27;;;4.80;;
17997;SDS011;9124;48.144;17.098;2022-08-19T17:13:27;16.52;;;5.20;;
17997;SDS011;9124;48.144;17.098;2022-08-19T17:17:04;15.77;;;5.53;;
17997;SDS011;9124;48.144;17.098;2022-08-19T17:20:41;12.35;;;5.40;;
17997;SDS011;9124;48.144;17.098;2022-08-19T17:24:18;15.07;;;4.82;;
17997;SDS011;9124;48.144;17.098;2022-08-19T17:27:55;24.45;;;5.57;;
17997;SDS011;9124;48.144;17.098;2022-08-19T17:31:33;20.27;;;4.93;;
17997;SDS011;9124;48.144;17.098;2022-08-19T17:35:10;13.23;;;4.82;;
17997;SDS011;9124;48.144;17.098;2022-08-19T17:38:47;18.17;;;5.78;;
17997;SDS011;9124;48.144;17.098;2022-08-19T17:42:24;13.32;;;4.45;;
17997;SDS011;9124;48.144;17.098;2022-08-19T17:46:02;11.55;;;4.20;;
17997;SDS011;9124;48.144;17.098;2022-08-19T17:49:39;20.65;;;4.68;;
17997;SDS011;9124;48.144;17.098;2022-08-19T17:53:16;15.52;;;4.78;;
17997;SDS011;9124;48.144;17.098;2022-08-19T17:56:53;11.75;;;4.32;;
17997;SDS011;9124;48.144;17.098;2022-08-19T18:00:31;18.33;;;5.07;;
17997;SDS011;9124;48.144;17.098;2022-08-19T18:04:08;10.18;;;4.13;;
17997;SDS011;9124;48.144;17.098;2022-08-19T18:07:48;10.32;;;4.18;;
17997;SDS011;9124;48.144;17.098;2022-08-19T18:11:27;10.10;;;4.45;;
17997;SDS011;9124;48.144;17.098;2022-08-19T18:20:25;19.45;;;4.10;;
17997;SDS011;9124;48.144;17.098;2022-08-19T18:29:31;39.20;;;6.78;;
17997;SDS011;9124;48.144;17.098;2022-08-19T18:33:09;18.90;;;5.15;;
17997;SDS011;9124;48.144;17.098;2022-08-19T18:36:49;18.80;;;4.65;;
17997;SDS011;9124;48.144;17.098;2022-08-19T18:40:27;25.55;;;4.90;;
17997;SDS011;9124;48.144;17.098;2022-08-19T18:44:22;15.60;;;4.55;;
17997;SDS011;9124;48.144;17.098;2022-08-19T18:48:18;22.85;;;5.15;;
17997;SDS011;9124;48.144;17.098;2022-08-19T18:52:13;15.00;;;4.65;;
17997;SDS011;9124;48.144;17.098;2022-08-19T18:55:50;13.27;;;4.25;;
17997;SDS011;9124;48.144;17.098;2022-08-19T18:59:28;21.70;;;4.75;;
17997;SDS011;9124;48.144;17.098;2022-08-19T19:03:05;19.50;;;4.40;;
17997;SDS011;9124;48.144;17.098;2022-08-19T19:06:43;13.30;;;4.28;;
17997;SDS011;9124;48.144;17.098;2022-08-19T19:10:20;12.10;;;4.43;;
17997;SDS011;9124;48.144;17.098;2022-08-19T19:13:56;14.98;;;4.88;;
17997;SDS011;9124;48.144;17.098;2022-08-19T19:17:37;13.55;;;4.93;;
17997;SDS011;9124;48.144;17.098;2022-08-19T19:21:14;17.08;;;4.57;;
17997;SDS011;9124;48.144;17.098;2022-08-19T19:24:51;24.88;;;5.22;;
17997;SDS011;9124;48.144;17.098;2022-08-19T19:28:31;13.27;;;4.47;;
17997;SDS011;9124;48.144;17.098;2022-08-19T19:32:15;16.95;;;4.97;;
17997;SDS011;9124;48.144;17.098;2022-08-19T19:36:19;18.92;;;5.28;;
17997;SDS011;9124;48.144;17.098;2022-08-19T19:39:56;17.80;;;5.30;;
17997;SDS011;9124;48.144;17.098;2022-08-19T19:43:37;23.02;;;5.55;;
17997;SDS011;9124;48.144;17.098;2022-08-19T19:47:15;17.88;;;5.40;;
17997;SDS011;9124;48.144;17.098;2022-08-19T19:50:54;19.63;;;5.50;;
17997;SDS011;9124;48.144;17.098;2022-08-19T19:54:38;10.38;;;4.63;;
17997;SDS011;9124;48.144;17.098;2022-08-19T19:58:16;19.73;;;5.07;;
17997;SDS011;9124;48.144;17.098;2022-08-19T20:01:53;20.38;;;5.40;;
17997;SDS011;9124;48.144;17.098;2022-08-19T20:05:31;19.27;;;5.85;;
17997;SDS011;9124;48.144;17.098;2022-08-19T20:09:08;26.02;;;6.28;;
17997;SDS011;9124;48.144;17.098;2022-08-19T20:12:45;12.75;;;5.47;;
17997;SDS011;9124;48.144;17.098;2022-08-19T20:16:22;20.25;;;6.78;;
17997;SDS011;9124;48.144;17.098;2022-08-19T20:20:00;18.98;;;6.13;;
17997;SDS011;9124;48.144;17.098;2022-08-19T20:23:37;17.27;;;6.40;;
17997;SDS011;9124;48.144;17.098;2022-08-19T20:32:44;22.13;;;7.10;;
17997;SDS011;9124;48.144;17.098;2022-08-19T20:41:52;18.08;;;6.60;;
17997;SDS011;9124;48.144;17.098;2022-08-19T20:45:31;23.65;;;7.50;;
17997;SDS011;9124;48.144;17.098;2022-08-19T20:49:10;27.38;;;7.35;;
17997;SDS011;9124;48.144;17.098;2022-08-19T20:52:55;16.60;;;7.60;;
17997;SDS011;9124;48.144;17.098;2022-08-19T20:56:35;21.77;;;7.63;;
17997;SDS011;9124;48.144;17.098;2022-08-19T21:00:11;21.00;;;8.02;;
17997;SDS011;9124;48.144;17.098;2022-08-19T21:03:49;14.90;;;7.28;;
17997;SDS011;9124;48.144;17.098;2022-08-19T21:07:35;15.57;;;8.48;;
17997;SDS011;9124;48.144;17.098;2022-08-19T21:11:16;19.48;;;8.38;;
17997;SDS011;9124;48.144;17.098;2022-08-19T21:14:53;17.38;;;8.65;;
17997;SDS011;9124;48.144;17.098;2022-08-19T21:18:30;22.35;;;9.23;;
17997;SDS011;9124;48.144;17.098;2022-08-19T21:22:08;14.27;;;7.55;;
17997;SDS011;9124;48.144;17.098;2022-08-19T21:25:45;19.02;;;8.82;;
17997;SDS011;9124;48.144;17.098;2022-08-19T21:29:22;22.88;;;9.23;;
17997;SDS011;9124;48.144;17.098;2022-08-19T21:32:59;13.45;;;9.18;;
17997;SDS011;9124;48.144;17.098;2022-08-19T21:36:38;21.40;;;9.90;;
17997;SDS011;9124;48.144;17.098;2022-08-19T21:40:14;26.33;;;9.52;;
17997;SDS011;9124;48.144;17.098;2022-08-19T21:43:52;18.02;;;8.93;;
17997;SDS011;9124;48.144;17.098;2022-08-19T21:47:29;16.23;;;9.77;;
17997;SDS011;9124;48.144;17.098;2022-08-19T21:51:06;16.50;;;10.60;;
17997;SDS011;9124;48.144;17.098;2022-08-19T21:54:43;20.23;;;10.55;;
17997;SDS011;9124;48.144;17.098;2022-08-19T21:58:20;22.52;;;9.75;;
17997;SDS011;9124;48.144;17.098;2022-08-19T22:01:57;15.15;;;10.00;;
17997;SDS011;9124;48.144;17.098;2022-08-19T22:05:34;24.88;;;9.77;;
17997;SDS011;9124;48.144;17.098;2022-08-19T22:09:11;24.60;;;9.00;;
17997;SDS011;9124;48.144;17.098;2022-08-19T22:12:49;21.08;;;9.50;;
17997;SDS011;9124;48.144;17.098;2022-08-19T22:16:25;17.38;;;9.27;;
17997;SDS011;9124;48.144;17.098;2022-08-19T22:20:08;23.95;;;10.02;;
17997;SDS011;9124;48.144;17.098;2022-08-19T22:23:46;15.73;;;9.55;;
17997;SDS011;9124;48.144;17.098;2022-08-19T22:36:02;19.33;;;10.02;;
17997;SDS011;9124;48.144;17.098;2022-08-19T22:39:42;20.88;;;9.73;;
17997;SDS011;9124;48.144;17.098;2022-08-19T22:43:22;18.52;;;9.70;;
17997;SDS011;9124;48.144;17.098;2022-08-19T22:47:00;15.32;;;9.13;;
17997;SDS011;9124;48.144;17.098;2022-08-19T22:50:38;23.58;;;10.07;;
17997;SDS011;9124;48.144;17.098;2022-08-19T22:54:16;16.63;;;9.85;;
17997;SDS011;9124;48.144;17.098;2022-08-19T22:57:54;21.88;;;9.70;;
17997;SDS011;9124;48.144;17.098;2022-08-19T23:01:31;22.38;;;10.25;;
17997;SDS011;9124;48.144;17.098;2022-08-19T23:05:09;17.83;;;9.73;;
17997;SDS011;9124;48.144;17.098;2022-08-19T23:08:45;18.42;;;10.00;;
17997;SDS011;9124;48.144;17.098;2022-08-19T23:12:31;19.98;;;10.30;;
17997;SDS011;9124;48.144;17.098;2022-08-19T23:16:12;17.98;;;8.95;;
17997;SDS011;9124;48.144;17.098;2022-08-19T23:19:51;20.60;;;9.27;;
17997;SDS011;9124;48.144;17.098;2022-08-19T23:23:27;15.63;;;9.52;;
17997;SDS011;9124;48.144;17.098;2022-08-19T23:27:05;20.77;;;9.35;;
17997;SDS011;9124;48.144;17.098;2022-08-19T23:31:00;25.10;;;10.02;;
17997;SDS011;9124;48.144;17.098;2022-08-19T23:34:37;19.77;;;9.70;;
17997;SDS011;9124;48.144;17.098;2022-08-19T23:38:14;24.73;;;9.93;;
17997;SDS011;9124;48.144;17.098;2022-08-19T23:41:51;16.50;;;9.30;;
17997;SDS011;9124;48.144;17.098;2022-08-19T23:45:28;22.15;;;9.88;;
17997;SDS011;9124;48.144;17.098;2022-08-19T23:49:06;15.80;;;9.70;;
17997;SDS011;9124;48.144;17.098;2022-08-19T23:52:51;19.88;;;9.32;;
17997;SDS011;9124;48.144;17.098;2022-08-19T23:56:29;18.92;;;9.20;;
